createdAt,value
2018-08-19T00:00:22.742Z,0.00
2018-08-19T00:01:22.971Z,0.00
2018-08-19T00:02:23.197Z,0.00
2018-08-19T00:03:23.422Z,0.00
2018-08-19T00:04:23.652Z,0.00
2018-08-19T00:05:23.876Z,0.00
2018-08-19T00:06:24.113Z,0.00
2018-08-19T00:07:24.334Z,0.00
2018-08-19T00:08:24.564Z,0.00
2018-08-19T00:09:24.797Z,0.00
2018-08-19T00:10:25.028Z,0.00
2018-08-19T00:11:25.250Z,0.00
2018-08-19T00:12:25.479Z,0.00
2018-08-19T00:13:25.705Z,0.00
2018-08-19T00:14:25.936Z,0.00
2018-08-19T00:15:26.167Z,0.00
2018-08-19T00:16:26.398Z,0.00
2018-08-19T00:17:26.630Z,0.00
2018-08-19T00:18:26.865Z,0.00
2018-08-19T00:19:27.097Z,0.00
2018-08-19T00:20:27.328Z,0.00
2018-08-19T00:21:27.553Z,0.00
2018-08-19T00:22:27.778Z,0.00
2018-08-19T00:23:28.007Z,0.00
2018-08-19T00:24:28.238Z,0.00
2018-08-19T00:25:28.608Z,0.00
2018-08-19T00:26:28.703Z,0.00
2018-08-19T00:27:28.926Z,0.00
2018-08-19T00:28:29.162Z,0.00
2018-08-19T00:29:29.383Z,0.00
2018-08-19T00:30:29.617Z,0.00
2018-08-19T00:31:29.838Z,0.00
2018-08-19T00:32:30.068Z,0.00
2018-08-19T00:33:30.294Z,0.00
2018-08-19T00:34:30.522Z,0.00
2018-08-19T00:35:30.750Z,0.00
2018-08-19T00:36:30.981Z,0.00
2018-08-19T00:37:31.202Z,0.00
2018-08-19T00:38:31.435Z,0.00
2018-08-19T00:39:31.662Z,0.00
2018-08-19T00:40:31.888Z,0.00
2018-08-19T00:41:32.128Z,0.00
2018-08-19T00:42:32.347Z,0.00
2018-08-19T00:43:32.579Z,0.00
2018-08-19T00:44:32.804Z,0.00
2018-08-19T00:45:33.039Z,0.00
2018-08-19T00:46:33.278Z,0.00
2018-08-19T00:47:33.490Z,0.00
2018-08-19T00:48:33.718Z,0.00
2018-08-19T00:49:33.953Z,0.00
2018-08-19T00:50:34.184Z,0.00
2018-08-19T00:51:34.407Z,0.00
2018-08-19T00:52:34.639Z,0.00
2018-08-19T00:53:34.868Z,0.00
2018-08-19T00:54:35.092Z,0.00
2018-08-19T00:55:35.323Z,0.00
2018-08-19T00:56:35.551Z,0.00
2018-08-19T00:57:35.775Z,0.00
2018-08-19T00:58:36.012Z,0.00
2018-08-19T00:59:36.240Z,0.00
2018-08-19T01:00:36.468Z,0.00
2018-08-19T01:01:36.696Z,0.00
2018-08-19T01:02:36.925Z,0.00
2018-08-19T01:03:37.154Z,0.00
2018-08-19T01:04:37.381Z,0.00
2018-08-19T01:05:37.621Z,0.00
2018-08-19T01:06:37.837Z,0.00
2018-08-19T01:07:38.066Z,0.00
2018-08-19T01:08:38.289Z,0.00
2018-08-19T01:09:38.516Z,0.00
2018-08-19T01:10:38.753Z,0.00
2018-08-19T01:11:38.977Z,0.00
2018-08-19T01:12:39.208Z,0.00
2018-08-19T01:13:39.433Z,0.00
2018-08-19T01:14:39.660Z,0.00
2018-08-19T01:15:39.898Z,0.00
2018-08-19T01:16:40.121Z,0.00
2018-08-19T01:17:40.371Z,0.00
2018-08-19T01:18:40.590Z,0.00
2018-08-19T01:19:40.821Z,0.00
2018-08-19T01:20:41.051Z,0.00
2018-08-19T01:21:41.271Z,0.00
2018-08-19T01:22:41.500Z,0.00
2018-08-19T01:23:41.730Z,0.00
2018-08-19T01:24:41.960Z,0.00
2018-08-19T01:25:42.183Z,0.00
2018-08-19T01:26:42.406Z,0.00
2018-08-19T01:27:42.638Z,0.00
2018-08-19T01:28:42.861Z,0.00
2018-08-19T01:29:43.094Z,0.00
2018-08-19T01:30:43.321Z,0.00
2018-08-19T01:31:43.543Z,0.00
2018-08-19T01:32:43.772Z,0.00
2018-08-19T01:33:43.984Z,0.00
2018-08-19T01:34:44.231Z,0.00
2018-08-19T01:35:44.461Z,0.00
2018-08-19T01:36:44.686Z,0.00
2018-08-19T01:37:44.917Z,0.00
2018-08-19T01:38:45.146Z,0.00
2018-08-19T01:39:45.373Z,0.00
2018-08-19T01:40:45.602Z,0.00
2018-08-19T01:41:45.834Z,0.00
2018-08-19T01:42:46.066Z,0.00
2018-08-19T01:43:46.283Z,0.00
2018-08-19T01:44:46.506Z,0.00
2018-08-19T01:45:46.740Z,0.00
2018-08-19T01:46:46.973Z,0.00
2018-08-19T01:47:47.199Z,0.00
2018-08-19T01:48:47.419Z,0.00
2018-08-19T01:49:47.654Z,0.00
2018-08-19T01:50:47.878Z,0.00
2018-08-19T01:51:48.108Z,0.00
2018-08-19T01:52:48.337Z,0.00
2018-08-19T01:53:48.564Z,0.00
2018-08-19T01:54:48.794Z,0.00
2018-08-19T01:55:49.022Z,0.00
2018-08-19T01:56:49.250Z,0.00
2018-08-19T01:57:49.478Z,0.00
2018-08-19T01:58:49.707Z,0.00
2018-08-19T01:59:49.931Z,0.00
2018-08-19T02:00:50.190Z,0.00
2018-08-19T02:01:50.388Z,0.00
2018-08-19T02:02:50.612Z,0.00
2018-08-19T02:03:50.847Z,0.00
2018-08-19T02:04:51.070Z,0.00
2018-08-19T02:05:51.297Z,0.00
2018-08-19T02:06:51.528Z,0.00
2018-08-19T02:07:51.759Z,0.00
2018-08-19T02:08:59.827Z,0.00
2018-08-19T02:09:59.886Z,0.00
2018-08-19T02:11:00.185Z,0.00
2018-08-19T02:12:00.412Z,0.00
2018-08-19T02:12:52.944Z,0.00
2018-08-19T02:13:53.154Z,0.00
2018-08-19T02:15:01.114Z,0.00
2018-08-19T02:15:53.694Z,0.00
2018-08-19T02:16:53.886Z,0.00
2018-08-19T02:17:54.117Z,0.00
2018-08-19T02:18:54.349Z,0.00
2018-08-19T02:19:54.595Z,0.00
2018-08-19T02:21:03.615Z,0.00
2018-08-19T02:21:55.022Z,0.00
2018-08-19T02:22:55.244Z,0.00
2018-08-19T02:23:55.470Z,0.00
2018-08-19T02:24:55.696Z,0.00
2018-08-19T02:25:55.926Z,0.00
2018-08-19T02:26:56.154Z,0.00
2018-08-19T02:27:56.394Z,0.00
2018-08-19T02:28:56.615Z,0.00
2018-08-19T02:29:56.870Z,0.00
2018-08-19T02:30:57.065Z,0.00
2018-08-19T02:31:57.290Z,0.00
2018-08-19T02:32:57.518Z,0.00
2018-08-19T02:33:57.746Z,0.00
2018-08-19T02:34:57.975Z,0.00
2018-08-19T02:35:58.227Z,0.00
2018-08-19T02:36:58.431Z,0.00
2018-08-19T02:37:58.660Z,0.00
2018-08-19T02:38:58.884Z,0.00
2018-08-19T02:39:59.110Z,0.00
2018-08-19T02:40:59.337Z,0.00
2018-08-19T02:41:59.566Z,0.00
2018-08-19T02:42:59.841Z,0.00
2018-08-19T02:44:00.017Z,0.00
2018-08-19T02:45:00.247Z,0.00
2018-08-19T02:46:00.475Z,0.00
2018-08-19T02:47:00.703Z,0.00
2018-08-19T02:48:00.928Z,0.00
2018-08-19T02:49:01.161Z,0.00
2018-08-19T02:50:01.392Z,0.00
2018-08-19T02:51:01.622Z,0.00
2018-08-19T02:52:01.849Z,0.00
2018-08-19T02:53:02.075Z,0.00
2018-08-19T02:54:02.302Z,0.00
2018-08-19T02:55:02.533Z,0.00
2018-08-19T02:56:02.759Z,0.00
2018-08-19T02:57:02.983Z,0.00
2018-08-19T02:58:03.212Z,0.00
2018-08-19T02:59:03.439Z,0.00
2018-08-19T03:00:03.669Z,0.00
2018-08-19T03:01:03.900Z,0.00
2018-08-19T03:02:04.125Z,0.00
2018-08-19T03:03:04.350Z,0.00
2018-08-19T03:04:04.579Z,0.00
2018-08-19T03:05:04.805Z,0.00
2018-08-19T03:06:05.031Z,0.00
2018-08-19T03:07:05.262Z,0.00
2018-08-19T03:08:05.492Z,0.00
2018-08-19T03:09:05.721Z,0.00
2018-08-19T03:10:05.936Z,0.00
2018-08-19T03:11:06.166Z,0.00
2018-08-19T03:12:06.402Z,0.00
2018-08-19T03:13:06.623Z,0.00
2018-08-19T03:14:06.847Z,0.00
2018-08-19T03:15:07.132Z,0.00
2018-08-19T03:16:07.302Z,0.00
2018-08-19T03:17:07.537Z,0.00
2018-08-19T03:18:07.764Z,0.00
2018-08-19T03:19:07.993Z,0.00
2018-08-19T03:20:08.222Z,0.00
2018-08-19T03:21:08.451Z,0.00
2018-08-19T03:22:08.679Z,0.00
2018-08-19T03:23:08.912Z,0.00
2018-08-19T03:24:09.136Z,0.00
2018-08-19T03:25:09.363Z,0.00
2018-08-19T03:26:09.589Z,0.00
2018-08-19T03:27:09.819Z,0.00
2018-08-19T03:28:10.043Z,0.00
2018-08-19T03:29:10.268Z,0.00
2018-08-19T03:30:10.493Z,0.00
2018-08-19T03:31:10.723Z,0.00
2018-08-19T03:32:10.944Z,0.00
2018-08-19T03:33:11.173Z,0.00
2018-08-19T03:34:11.397Z,0.00
2018-08-19T03:35:11.621Z,0.00
2018-08-19T03:36:11.844Z,0.00
2018-08-19T03:37:12.062Z,0.00
2018-08-19T03:38:12.293Z,0.00
2018-08-19T03:39:12.520Z,0.00
2018-08-19T03:40:12.748Z,0.00
2018-08-19T03:41:12.973Z,0.00
2018-08-19T03:42:13.202Z,0.00
2018-08-19T03:43:13.433Z,0.00
2018-08-19T03:44:13.664Z,0.00
2018-08-19T03:45:13.888Z,0.00
2018-08-19T03:46:14.177Z,0.00
2018-08-19T03:47:14.343Z,0.00
2018-08-19T03:48:14.581Z,0.00
2018-08-19T03:49:14.796Z,0.00
2018-08-19T03:50:15.013Z,0.00
2018-08-19T03:51:15.237Z,0.00
2018-08-19T03:52:15.465Z,0.00
2018-08-19T03:53:15.699Z,0.00
2018-08-19T03:54:15.922Z,0.00
2018-08-19T03:55:16.158Z,0.00
2018-08-19T03:56:16.381Z,0.00
2018-08-19T03:57:16.606Z,0.00
2018-08-19T03:58:16.841Z,0.00
2018-08-19T03:59:17.070Z,0.00
2018-08-19T04:00:17.295Z,5.63
2018-08-19T04:01:17.521Z,5.63
2018-08-19T04:02:17.745Z,5.63
2018-08-19T04:03:17.983Z,5.63
2018-08-19T04:04:18.214Z,5.63
2018-08-19T04:05:18.446Z,5.63
2018-08-19T04:06:18.675Z,5.63
2018-08-19T04:07:18.894Z,11.25
2018-08-19T04:08:19.121Z,11.25
2018-08-19T04:09:19.349Z,11.25
2018-08-19T04:10:19.572Z,11.25
2018-08-19T04:11:19.806Z,16.88
2018-08-19T04:12:20.028Z,16.88
2018-08-19T04:13:20.259Z,16.88
2018-08-19T04:14:20.484Z,16.88
2018-08-19T04:15:20.713Z,22.50
2018-08-19T04:16:20.941Z,22.50
2018-08-19T04:17:21.169Z,22.50
2018-08-19T04:18:21.396Z,28.13
2018-08-19T04:19:21.624Z,28.13
2018-08-19T04:20:21.849Z,33.75
2018-08-19T04:21:22.079Z,33.75
2018-08-19T04:22:22.307Z,39.38
2018-08-19T04:23:22.546Z,39.38
2018-08-19T04:24:22.778Z,45.00
2018-08-19T04:25:22.998Z,45.00
2018-08-19T04:26:23.229Z,50.63
2018-08-19T04:27:23.474Z,56.25
2018-08-19T04:28:23.684Z,61.88
2018-08-19T04:29:23.911Z,61.88
2018-08-19T04:30:24.139Z,67.50
2018-08-19T04:31:24.373Z,73.13
2018-08-19T04:32:24.594Z,73.13
2018-08-19T04:33:24.828Z,78.75
2018-08-19T04:34:25.063Z,78.75
2018-08-19T04:35:25.275Z,84.38
2018-08-19T04:36:25.505Z,90.00
2018-08-19T04:37:25.733Z,90.00
2018-08-19T04:38:25.962Z,95.63
2018-08-19T04:39:26.191Z,101.25
2018-08-19T04:40:26.422Z,101.25
2018-08-19T04:41:26.652Z,106.88
2018-08-19T04:42:26.985Z,112.50
2018-08-19T04:43:27.108Z,112.50
2018-08-19T04:44:27.331Z,118.13
2018-08-19T04:45:27.555Z,123.75
2018-08-19T04:46:27.784Z,129.38
2018-08-19T04:47:28.013Z,135.00
2018-08-19T04:48:28.240Z,151.88
2018-08-19T04:49:28.469Z,174.38
2018-08-19T04:50:28.706Z,213.75
2018-08-19T04:51:28.932Z,258.75
2018-08-19T04:52:29.153Z,241.88
2018-08-19T04:53:29.378Z,258.75
2018-08-19T04:54:29.611Z,303.75
2018-08-19T04:55:29.846Z,348.75
2018-08-19T04:56:30.069Z,450.00
2018-08-19T04:57:30.300Z,534.38
2018-08-19T04:58:30.526Z,585.00
2018-08-19T04:59:30.777Z,601.88
2018-08-19T05:00:31.034Z,613.13
2018-08-19T05:01:31.219Z,624.38
2018-08-19T05:02:31.464Z,635.63
2018-08-19T05:03:31.668Z,646.88
2018-08-19T05:04:31.892Z,658.13
2018-08-19T05:05:32.120Z,675.00
2018-08-19T05:06:32.354Z,697.50
2018-08-19T05:07:32.584Z,720.00
2018-08-19T05:08:32.892Z,731.25
2018-08-19T05:09:33.050Z,748.13
2018-08-19T05:10:33.316Z,759.38
2018-08-19T05:11:33.489Z,770.63
2018-08-19T05:12:33.719Z,781.88
2018-08-19T05:13:33.954Z,793.13
2018-08-19T05:14:34.186Z,810.00
2018-08-19T05:15:34.498Z,826.88
2018-08-19T05:16:34.648Z,838.13
2018-08-19T05:17:34.877Z,860.63
2018-08-19T05:18:35.107Z,866.25
2018-08-19T05:19:35.343Z,877.50
2018-08-19T05:20:35.570Z,883.13
2018-08-19T05:21:35.798Z,888.75
2018-08-19T05:22:36.122Z,894.38
2018-08-19T05:23:36.260Z,905.63
2018-08-19T05:24:36.484Z,905.63
2018-08-19T05:25:36.715Z,916.88
2018-08-19T05:26:36.946Z,928.13
2018-08-19T05:27:37.178Z,939.38
2018-08-19T05:28:37.417Z,939.38
2018-08-19T05:29:37.644Z,945.00
2018-08-19T05:30:37.875Z,956.25
2018-08-19T05:31:38.119Z,961.88
2018-08-19T05:32:38.339Z,973.13
2018-08-19T05:33:47.309Z,973.13
2018-08-19T05:34:46.510Z,978.75
2018-08-19T05:35:47.937Z,990.00
2018-08-19T05:36:47.144Z,990.00
2018-08-19T05:37:48.433Z,990.00
2018-08-19T05:38:39.894Z,995.63
2018-08-19T05:39:48.032Z,990.00
2018-08-19T05:40:40.319Z,995.63
2018-08-19T05:41:40.529Z,995.63
2018-08-19T05:42:40.759Z,1001.25
2018-08-19T05:43:40.989Z,1012.50
2018-08-19T05:44:41.223Z,1012.50
2018-08-19T05:45:41.464Z,1018.13
2018-08-19T05:46:41.717Z,1018.13
2018-08-19T05:47:41.925Z,1012.50
2018-08-19T05:48:42.161Z,1018.13
2018-08-19T05:49:42.395Z,1018.13
2018-08-19T05:50:42.637Z,1023.75
2018-08-19T05:51:42.867Z,1023.75
2018-08-19T05:52:43.106Z,1012.50
2018-08-19T05:53:43.347Z,1018.13
2018-08-19T05:54:43.645Z,1018.13
2018-08-19T05:55:43.878Z,1023.75
2018-08-19T05:56:44.025Z,1012.50
2018-08-19T05:57:44.268Z,1001.25
2018-08-19T05:58:44.503Z,1001.25
2018-08-19T05:59:44.739Z,995.63
2018-08-19T06:00:44.973Z,990.00
2018-08-19T06:01:45.205Z,984.38
2018-08-19T06:02:45.444Z,984.38
2018-08-19T06:03:45.678Z,984.38
2018-08-19T06:04:45.911Z,984.38
2018-08-19T06:05:46.148Z,978.75
2018-08-19T06:06:46.378Z,978.75
2018-08-19T06:07:46.614Z,973.13
2018-08-19T06:08:46.852Z,973.13
2018-08-19T06:09:47.084Z,973.13
2018-08-19T06:10:47.334Z,961.88
2018-08-19T06:11:47.561Z,956.25
2018-08-19T06:12:47.811Z,950.63
2018-08-19T06:13:48.029Z,945.00
2018-08-19T06:14:48.266Z,939.38
2018-08-19T06:15:48.540Z,933.75
2018-08-19T06:16:48.739Z,928.13
2018-08-19T06:17:48.974Z,916.88
2018-08-19T06:18:49.210Z,911.25
2018-08-19T06:19:49.446Z,900.00
2018-08-19T06:20:49.694Z,888.75
2018-08-19T06:21:49.928Z,888.75
2018-08-19T06:22:50.158Z,877.50
2018-08-19T06:23:50.397Z,871.88
2018-08-19T06:24:50.641Z,860.63
2018-08-19T06:25:50.876Z,855.00
2018-08-19T06:26:51.106Z,843.75
2018-08-19T06:27:51.345Z,832.50
2018-08-19T06:28:51.591Z,826.88
2018-08-19T06:29:51.867Z,821.25
2018-08-19T06:30:52.001Z,810.00
2018-08-19T06:31:52.238Z,804.38
2018-08-19T06:32:52.477Z,798.75
2018-08-19T06:33:52.718Z,793.13
2018-08-19T06:34:53.087Z,781.88
2018-08-19T06:35:55.970Z,776.25
2018-08-19T06:37:01.142Z,770.63
2018-08-19T06:38:01.446Z,753.75
2018-08-19T06:39:02.580Z,736.88
2018-08-19T06:40:01.949Z,720.00
2018-08-19T06:41:02.264Z,708.75
2018-08-19T06:42:11.072Z,691.88
2018-08-19T06:43:07.789Z,686.25
2018-08-19T06:44:03.136Z,669.38
2018-08-19T06:45:03.265Z,652.50
2018-08-19T06:45:55.784Z,641.25
2018-08-19T06:47:03.704Z,624.38
2018-08-19T06:48:04.289Z,613.13
2018-08-19T06:48:56.454Z,613.13
2018-08-19T06:50:04.468Z,607.50
2018-08-19T06:50:56.955Z,590.63
2018-08-19T06:51:57.187Z,585.00
2018-08-19T06:53:05.139Z,579.38
2018-08-19T06:53:57.689Z,556.88
2018-08-19T06:54:57.909Z,500.63
2018-08-19T06:55:58.152Z,461.25
2018-08-19T06:56:58.390Z,461.25
2018-08-19T06:57:58.622Z,461.25
2018-08-19T06:58:58.859Z,461.25
2018-08-19T06:59:59.101Z,461.25
2018-08-19T07:00:59.333Z,461.25
2018-08-19T07:01:59.573Z,455.63
2018-08-19T07:02:59.806Z,461.25
2018-08-19T07:04:00.075Z,461.25
2018-08-19T07:05:00.278Z,461.25
2018-08-19T07:06:00.515Z,461.25
2018-08-19T07:07:00.753Z,461.25
2018-08-19T07:08:00.988Z,461.25
2018-08-19T07:09:01.219Z,461.25
2018-08-19T07:10:01.463Z,461.25
2018-08-19T07:11:01.704Z,461.25
2018-08-19T07:12:01.932Z,461.25
2018-08-19T07:13:02.167Z,461.25
2018-08-19T07:14:02.403Z,461.25
2018-08-19T07:15:02.638Z,455.63
2018-08-19T07:16:02.884Z,461.25
2018-08-19T07:17:03.107Z,461.25
2018-08-19T07:18:03.325Z,455.63
2018-08-19T07:19:03.561Z,455.63
2018-08-19T07:20:03.805Z,455.63
2018-08-19T07:21:04.036Z,455.63
2018-08-19T07:22:04.269Z,455.63
2018-08-19T07:23:04.507Z,455.63
2018-08-19T07:24:04.751Z,455.63
2018-08-19T07:25:04.986Z,455.63
2018-08-19T07:26:05.216Z,455.63
2018-08-19T07:27:05.451Z,455.63
2018-08-19T07:28:05.691Z,461.25
2018-08-19T07:29:05.921Z,455.63
2018-08-19T07:30:06.158Z,455.63
2018-08-19T07:31:06.388Z,455.63
2018-08-19T07:32:06.629Z,455.63
2018-08-19T07:33:06.863Z,455.63
2018-08-19T07:34:07.100Z,450.00
2018-08-19T07:35:07.343Z,450.00
2018-08-19T07:36:07.568Z,450.00
2018-08-19T07:37:07.872Z,450.00
2018-08-19T07:38:08.039Z,444.38
2018-08-19T07:39:08.276Z,450.00
2018-08-19T07:40:08.499Z,444.38
2018-08-19T07:41:08.739Z,444.38
2018-08-19T07:42:08.976Z,444.38
2018-08-19T07:43:09.195Z,444.38
2018-08-19T07:44:09.430Z,444.38
2018-08-19T07:45:09.665Z,444.38
2018-08-19T07:46:09.898Z,444.38
2018-08-19T07:47:10.135Z,444.38
2018-08-19T07:48:10.368Z,444.38
2018-08-19T07:49:10.604Z,438.75
2018-08-19T07:50:10.839Z,438.75
2018-08-19T07:51:11.073Z,438.75
2018-08-19T07:52:11.309Z,438.75
2018-08-19T07:53:11.539Z,433.13
2018-08-19T07:54:11.771Z,433.13
2018-08-19T07:55:12.016Z,433.13
2018-08-19T07:56:12.252Z,433.13
2018-08-19T07:57:12.489Z,427.50
2018-08-19T07:58:12.725Z,433.13
2018-08-19T07:59:12.945Z,427.50
2018-08-19T08:00:13.184Z,427.50
2018-08-19T08:01:13.445Z,427.50
2018-08-19T08:02:13.653Z,427.50
2018-08-19T08:03:13.884Z,421.88
2018-08-19T08:04:14.122Z,421.88
2018-08-19T08:05:14.353Z,421.88
2018-08-19T08:06:14.592Z,421.88
2018-08-19T08:07:14.818Z,421.88
2018-08-19T08:08:15.053Z,421.88
2018-08-19T08:09:15.299Z,421.88
2018-08-19T08:10:15.529Z,416.25
2018-08-19T08:11:15.758Z,416.25
2018-08-19T08:12:15.993Z,416.25
2018-08-19T08:13:16.225Z,416.25
2018-08-19T08:14:16.458Z,416.25
2018-08-19T08:15:16.692Z,416.25
2018-08-19T08:16:16.927Z,416.25
2018-08-19T08:17:17.160Z,416.25
2018-08-19T08:18:17.396Z,416.25
2018-08-19T08:19:17.636Z,410.63
2018-08-19T08:20:17.870Z,416.25
2018-08-19T08:21:18.176Z,410.63
2018-08-19T08:22:18.343Z,410.63
2018-08-19T08:23:18.578Z,410.63
2018-08-19T08:24:18.818Z,410.63
2018-08-19T08:25:19.041Z,416.25
2018-08-19T08:26:19.275Z,410.63
2018-08-19T08:27:19.519Z,410.63
2018-08-19T08:28:19.751Z,410.63
2018-08-19T08:29:19.980Z,410.63
2018-08-19T08:30:20.225Z,410.63
2018-08-19T08:31:20.459Z,410.63
2018-08-19T08:32:20.702Z,410.63
2018-08-19T08:33:20.933Z,405.00
2018-08-19T08:34:21.196Z,405.00
2018-08-19T08:35:21.419Z,405.00
2018-08-19T08:36:21.643Z,405.00
2018-08-19T08:37:21.879Z,405.00
2018-08-19T08:38:22.113Z,405.00
2018-08-19T08:39:22.356Z,405.00
2018-08-19T08:40:22.596Z,405.00
2018-08-19T08:41:22.834Z,405.00
2018-08-19T08:42:23.058Z,405.00
2018-08-19T08:43:23.302Z,405.00
2018-08-19T08:44:23.537Z,405.00
2018-08-19T08:45:23.775Z,405.00
2018-08-19T08:46:24.011Z,399.38
2018-08-19T08:47:24.265Z,399.38
2018-08-19T08:48:24.491Z,399.38
2018-08-19T08:49:24.732Z,399.38
2018-08-19T08:50:24.960Z,399.38
2018-08-19T08:51:25.195Z,399.38
2018-08-19T08:52:25.435Z,399.38
2018-08-19T08:53:25.722Z,399.38
2018-08-19T08:54:25.906Z,399.38
2018-08-19T08:55:26.143Z,399.38
2018-08-19T08:56:26.406Z,393.75
2018-08-19T08:57:26.609Z,393.75
2018-08-19T08:58:26.844Z,393.75
2018-08-19T08:59:27.076Z,393.75
2018-08-19T09:00:27.315Z,399.38
2018-08-19T09:01:27.553Z,393.75
2018-08-19T09:02:27.788Z,393.75
2018-08-19T09:03:28.021Z,393.75
2018-08-19T09:04:28.255Z,393.75
2018-08-19T09:05:28.494Z,393.75
2018-08-19T09:06:28.757Z,393.75
2018-08-19T09:07:28.958Z,393.75
2018-08-19T09:08:29.194Z,393.75
2018-08-19T09:09:37.244Z,393.75
2018-08-19T09:10:29.709Z,393.75
2018-08-19T09:11:29.947Z,399.38
2018-08-19T09:12:30.181Z,393.75
2018-08-19T09:13:30.421Z,388.13
2018-08-19T09:14:30.642Z,388.13
2018-08-19T09:15:30.887Z,388.13
2018-08-19T09:16:31.124Z,388.13
2018-08-19T09:17:31.356Z,393.75
2018-08-19T09:18:31.593Z,388.13
2018-08-19T09:19:31.827Z,388.13
2018-08-19T09:20:32.066Z,388.13
2018-08-19T09:21:32.299Z,388.13
2018-08-19T09:22:32.534Z,388.13
2018-08-19T09:23:32.771Z,388.13
2018-08-19T09:24:33.000Z,388.13
2018-08-19T09:25:33.235Z,388.13
2018-08-19T09:26:33.491Z,388.13
2018-08-19T09:27:33.703Z,388.13
2018-08-19T09:28:33.943Z,382.50
2018-08-19T09:29:34.177Z,382.50
2018-08-19T09:30:34.412Z,382.50
2018-08-19T09:31:34.654Z,382.50
2018-08-19T09:32:34.879Z,382.50
2018-08-19T09:33:35.119Z,382.50
2018-08-19T09:34:35.353Z,382.50
2018-08-19T09:35:35.590Z,382.50
2018-08-19T09:36:35.828Z,382.50
2018-08-19T09:37:36.074Z,382.50
2018-08-19T09:38:36.290Z,382.50
2018-08-19T09:39:36.526Z,382.50
2018-08-19T09:40:36.796Z,382.50
2018-08-19T09:41:36.992Z,382.50
2018-08-19T09:42:37.225Z,382.50
2018-08-19T09:43:37.463Z,382.50
2018-08-19T09:44:37.689Z,382.50
2018-08-19T09:45:37.927Z,376.88
2018-08-19T09:46:38.169Z,376.88
2018-08-19T09:47:38.473Z,376.88
2018-08-19T09:48:38.632Z,376.88
2018-08-19T09:49:38.868Z,376.88
2018-08-19T09:50:39.118Z,376.88
2018-08-19T09:51:39.340Z,376.88
2018-08-19T09:52:39.573Z,376.88
2018-08-19T09:53:39.805Z,376.88
2018-08-19T09:54:40.039Z,376.88
2018-08-19T09:55:40.277Z,376.88
2018-08-19T09:56:40.506Z,376.88
2018-08-19T09:57:40.753Z,376.88
2018-08-19T09:58:40.981Z,376.88
2018-08-19T09:59:41.222Z,376.88
2018-08-19T10:00:41.472Z,376.88
2018-08-19T10:01:41.707Z,376.88
2018-08-19T10:02:41.943Z,376.88
2018-08-19T10:03:42.182Z,376.88
2018-08-19T10:04:42.418Z,376.88
2018-08-19T10:05:42.654Z,376.88
2018-08-19T10:06:42.888Z,376.88
2018-08-19T10:07:43.165Z,376.88
2018-08-19T10:08:43.358Z,376.88
2018-08-19T10:09:43.593Z,376.88
2018-08-19T10:10:43.833Z,376.88
2018-08-19T10:11:44.067Z,376.88
2018-08-19T10:12:44.305Z,376.88
2018-08-19T10:13:44.609Z,376.88
2018-08-19T10:14:44.787Z,376.88
2018-08-19T10:15:45.022Z,371.25
2018-08-19T10:16:45.281Z,371.25
2018-08-19T10:17:45.523Z,371.25
2018-08-19T10:18:45.758Z,371.25
2018-08-19T10:19:45.997Z,371.25
2018-08-19T10:20:46.234Z,371.25
2018-08-19T10:21:46.466Z,371.25
2018-08-19T10:22:46.702Z,371.25
2018-08-19T10:23:46.972Z,371.25
2018-08-19T10:24:47.201Z,371.25
2018-08-19T10:25:47.426Z,371.25
2018-08-19T10:26:47.662Z,371.25
2018-08-19T10:27:47.899Z,376.88
2018-08-19T10:28:48.130Z,371.25
2018-08-19T10:29:48.369Z,371.25
2018-08-19T10:30:48.609Z,371.25
2018-08-19T10:31:48.841Z,371.25
2018-08-19T10:32:49.079Z,371.25
2018-08-19T10:33:49.316Z,365.63
2018-08-19T10:34:49.557Z,365.63
2018-08-19T10:35:49.789Z,371.25
2018-08-19T10:36:50.025Z,365.63
2018-08-19T10:37:50.259Z,365.63
2018-08-19T10:38:50.500Z,365.63
2018-08-19T10:39:50.730Z,365.63
2018-08-19T10:40:50.963Z,365.63
2018-08-19T10:41:51.198Z,365.63
2018-08-19T10:42:51.442Z,365.63
2018-08-19T10:43:51.691Z,365.63
2018-08-19T10:44:51.930Z,365.63
2018-08-19T10:45:52.160Z,365.63
2018-08-19T10:46:52.395Z,365.63
2018-08-19T10:47:52.632Z,365.63
2018-08-19T10:48:52.869Z,365.63
2018-08-19T10:49:53.105Z,365.63
2018-08-19T10:50:53.356Z,365.63
2018-08-19T10:51:53.593Z,365.63
2018-08-19T10:52:53.842Z,365.63
2018-08-19T10:53:54.088Z,365.63
2018-08-19T10:54:54.320Z,365.63
2018-08-19T10:55:54.558Z,365.63
2018-08-19T10:56:54.805Z,365.63
2018-08-19T10:57:55.029Z,365.63
2018-08-19T10:58:55.265Z,365.63
2018-08-19T10:59:55.515Z,365.63
2018-08-19T11:00:55.740Z,365.63
2018-08-19T11:01:55.971Z,365.63
2018-08-19T11:02:56.215Z,365.63
2018-08-19T11:03:56.454Z,365.63
2018-08-19T11:04:56.691Z,365.63
2018-08-19T11:05:56.928Z,365.63
2018-08-19T11:06:57.169Z,365.63
2018-08-19T11:07:57.407Z,365.63
2018-08-19T11:08:57.643Z,365.63
2018-08-19T11:09:57.874Z,365.63
2018-08-19T11:10:58.171Z,365.63
2018-08-19T11:11:58.408Z,365.63
2018-08-19T11:12:58.658Z,365.63
2018-08-19T11:13:58.897Z,365.63
2018-08-19T11:14:59.134Z,365.63
2018-08-19T11:15:59.368Z,365.63
2018-08-19T11:16:59.602Z,365.63
2018-08-19T11:17:59.845Z,365.63
2018-08-19T11:19:00.086Z,365.63
2018-08-19T11:20:00.328Z,365.63
2018-08-19T11:21:00.635Z,365.63
2018-08-19T11:22:00.797Z,365.63
2018-08-19T11:23:01.036Z,365.63
2018-08-19T11:24:01.274Z,365.63
2018-08-19T11:25:01.506Z,365.63
2018-08-19T11:26:01.748Z,365.63
2018-08-19T11:27:01.981Z,365.63
2018-08-19T11:28:02.231Z,365.63
2018-08-19T11:29:02.466Z,365.63
2018-08-19T11:30:02.704Z,365.63
2018-08-19T11:31:02.932Z,365.63
2018-08-19T11:32:03.169Z,365.63
2018-08-19T11:33:03.406Z,365.63
2018-08-19T11:34:03.717Z,365.63
2018-08-19T11:35:03.877Z,365.63
2018-08-19T11:36:04.109Z,365.63
2018-08-19T11:37:04.351Z,365.63
2018-08-19T11:38:04.595Z,365.63
2018-08-19T11:39:04.824Z,365.63
2018-08-19T11:40:05.065Z,365.63
2018-08-19T11:41:05.283Z,365.63
2018-08-19T11:42:05.529Z,365.63
2018-08-19T11:43:05.767Z,365.63
2018-08-19T11:44:05.999Z,365.63
2018-08-19T11:45:06.235Z,365.63
2018-08-19T11:46:06.483Z,365.63
2018-08-19T11:47:06.716Z,365.63
2018-08-19T11:48:06.957Z,371.25
2018-08-19T11:49:07.196Z,365.63
2018-08-19T11:50:07.428Z,365.63
2018-08-19T11:51:07.666Z,365.63
2018-08-19T11:52:07.907Z,365.63
2018-08-19T11:53:08.159Z,365.63
2018-08-19T11:54:08.421Z,365.63
2018-08-19T11:55:08.657Z,365.63
2018-08-19T11:56:08.894Z,365.63
2018-08-19T11:57:09.130Z,365.63
2018-08-19T11:58:09.375Z,365.63
2018-08-19T11:59:09.600Z,360.00
2018-08-19T12:00:09.846Z,360.00
2018-08-19T12:01:10.145Z,360.00
2018-08-19T12:02:10.408Z,360.00
2018-08-19T12:03:10.561Z,360.00
2018-08-19T12:04:10.804Z,360.00
2018-08-19T12:05:11.038Z,360.00
2018-08-19T12:06:11.279Z,365.63
2018-08-19T12:07:11.530Z,360.00
2018-08-19T12:08:11.769Z,360.00
2018-08-19T12:09:12.024Z,360.00
2018-08-19T12:10:12.272Z,360.00
2018-08-19T12:11:12.510Z,360.00
2018-08-19T12:12:12.751Z,360.00
2018-08-19T12:13:12.999Z,360.00
2018-08-19T12:14:13.240Z,360.00
2018-08-19T12:15:13.475Z,360.00
2018-08-19T12:16:13.718Z,360.00
2018-08-19T12:17:13.949Z,360.00
2018-08-19T12:18:14.190Z,360.00
2018-08-19T12:19:14.435Z,360.00
2018-08-19T12:20:14.727Z,360.00
2018-08-19T12:21:14.972Z,360.00
2018-08-19T12:22:15.259Z,360.00
2018-08-19T12:23:15.490Z,360.00
2018-08-19T12:24:15.731Z,354.38
2018-08-19T12:25:15.971Z,360.00
2018-08-19T12:26:16.239Z,354.38
2018-08-19T12:27:16.491Z,354.38
2018-08-19T12:28:16.719Z,360.00
2018-08-19T12:29:16.959Z,354.38
2018-08-19T12:30:17.252Z,360.00
2018-08-19T12:31:17.392Z,354.38
2018-08-19T12:32:17.636Z,354.38
2018-08-19T12:33:17.871Z,354.38
2018-08-19T12:34:18.109Z,354.38
2018-08-19T12:35:18.347Z,354.38
2018-08-19T12:36:18.600Z,354.38
2018-08-19T12:37:18.952Z,354.38
2018-08-19T12:38:19.085Z,354.38
2018-08-19T12:39:19.324Z,354.38
2018-08-19T12:40:19.582Z,354.38
2018-08-19T12:41:19.823Z,354.38
2018-08-19T12:42:20.053Z,354.38
2018-08-19T12:43:20.305Z,354.38
2018-08-19T12:44:20.546Z,354.38
2018-08-19T12:45:20.785Z,354.38
2018-08-19T12:46:21.026Z,354.38
2018-08-19T12:47:21.264Z,354.38